Strona główna
METAR-TAF:

METAR-TAF

Lotnisko :

Port lotniczy Londyn-Oksford

Oksford, Anglia

Szerokość geograficzna: 51-50-13N, Długość geograficzna: 1-19-12W, wysokość: 82 m

Aktualna obserwacja pogody

Raport powstał 13 minut temu, godzina 16:50 UTC
Wiatr 5 kt od północny zachód, zmienny między zachodnio-południowy zachód i północ
Temperatura 22°C
Wilgotność 50%
Ciśnienie 1024 hPa
Widzialność 10 km lub więcej
Mało chmury na wysokości 4700 ft

METAR: EGTK 121650Z 31005KT 240V350 9999 FEW047 22/11 Q1024

czas: 18:03 (17:03 UTC)

Prognoza

Raport powstał 3 godziny i 6 minut temu, godzina 13:57 UTC
Prognoza ważna od 12 godzina 15 UTC do 12 godzina 21 UTC
Wiatr 6 kt od północ
Widzialność 10 km lub więcej
Rozproszone chmury na wysokości 3500 ft

TAF: EGTK 121357Z 1215/1221 35006KT 9999 SCT035

Obserwacja i prognoza pogody dla ponad 4000 lotnisk (raport METAR i TAF).

Dostępne stacje oznaczono żółtymi i czerwonymi punktami na mapie.

Najedź kursorem aby zobaczyć nazwę stacji.

Kliknij aby zobaczyć obserwacje i prognozy pogody.

Aby zmienić mapę: kliknij na zielony przycisk z czarnym krzyżykiem, aby powiększyć; na zielony przycisk z myślnikiem, aby pomniejszyć; na zielone strzałki, aby przejść do map sąsiednich.


METAR-TAF: